createdAt,value
2023-03-22T00:02:28.100Z,45.25
2023-03-22T00:07:29.733Z,45.27
2023-03-22T00:12:31.571Z,45.16
2023-03-22T00:17:36.618Z,45.29
2023-03-22T00:22:42.902Z,45.18
2023-03-22T00:27:46.956Z,45.26
2023-03-22T00:32:48.607Z,44.94
2023-03-22T00:37:52.627Z,45.07
2023-03-22T00:42:57.589Z,45.09
2023-03-22T00:48:02.148Z,44.86
2023-03-22T00:53:14.098Z,45.16
2023-03-22T00:58:25.416Z,45.19
2023-03-22T01:03:31.469Z,45.27
2023-03-22T01:08:35.501Z,45.44
2023-03-22T01:13:37.774Z,45.87
2023-03-22T01:18:39.655Z,45.92
2023-03-22T01:23:43.729Z,46.00
2023-03-22T01:28:47.534Z,45.70
2023-03-22T01:33:49.179Z,45.84
2023-03-22T01:38:51.001Z,45.88
2023-03-22T01:44:12.527Z,45.77
2023-03-22T01:49:25.923Z,45.55
2023-03-22T01:54:39.169Z,45.81
2023-03-22T01:59:53.825Z,46.25
2023-03-22T02:05:15.447Z,46.24
2023-03-22T02:10:27.050Z,46.30
2023-03-22T02:15:42.981Z,46.39
2023-03-22T02:21:28.303Z,46.43
2023-03-22T02:26:39.310Z,46.44
2023-03-22T02:32:22.206Z,46.55
2023-03-22T02:37:45.977Z,46.70
2023-03-22T02:43:01.071Z,46.91
2023-03-22T02:48:14.257Z,46.89
2023-03-22T02:53:29.751Z,47.15
2023-03-22T02:58:46.812Z,47.14
2023-03-22T03:03:52.904Z,47.21
2023-03-22T03:08:57.956Z,47.26
2023-03-22T03:14:00.868Z,47.38
2023-03-22T03:19:23.384Z,47.25
2023-03-22T03:24:47.965Z,47.35
2023-03-22T03:29:59.025Z,47.49
2023-03-22T03:35:22.523Z,47.39
2023-03-22T03:40:33.409Z,47.15
2023-03-22T03:45:39.653Z,47.19
2023-03-22T03:50:42.176Z,47.20
2023-03-22T03:55:46.208Z,47.15
2023-03-22T04:00:49.045Z,47.07
2023-03-22T04:06:13.698Z,47.24
2023-03-22T04:11:23.882Z,47.43
2023-03-22T04:16:28.902Z,47.38
2023-03-22T04:21:33.082Z,47.28
2023-03-22T04:26:36.465Z,47.57
2023-03-22T04:31:47.836Z,47.97
2023-03-22T04:37:08.179Z,47.78
2023-03-22T04:42:21.632Z,47.64
2023-03-22T04:47:33.530Z,47.85
2023-03-22T04:52:42.501Z,47.93
2023-03-22T04:57:48.732Z,47.99
2023-03-22T05:02:51.425Z,47.94
2023-03-22T05:08:14.337Z,48.01
2023-03-22T05:13:20.409Z,48.32
2023-03-22T05:18:26.223Z,48.33
2023-03-22T05:23:32.208Z,48.48
2023-03-22T05:28:35.792Z,48.19
2023-03-22T05:33:46.612Z,48.61
2023-03-22T05:38:51.761Z,48.77
2023-03-22T05:43:57.211Z,48.95
2023-03-22T05:48:59.226Z,48.90
2023-03-22T05:54:00.928Z,49.48
2023-03-22T05:59:12.815Z,49.47
2023-03-22T06:04:15.485Z,49.22
2023-03-22T06:09:26.270Z,49.73
2023-03-22T06:14:28.383Z,49.29
2023-03-22T06:19:42.552Z,49.72
2023-03-22T06:24:45.978Z,49.73
2023-03-22T06:29:55.882Z,50.02
2023-03-22T06:35:00.353Z,49.86
2023-03-22T06:40:04.748Z,49.96
2023-03-22T06:45:09.400Z,50.14
2023-03-22T06:50:16.051Z,49.87
2023-03-22T06:55:46.016Z,49.98
2023-03-22T07:00:57.291Z,50.24
2023-03-22T07:06:07.542Z,50.29
2023-03-22T07:11:13.289Z,50.05
2023-03-22T07:16:19.873Z,50.14
2023-03-22T07:21:26.421Z,50.04
2023-03-22T07:26:33.654Z,49.91
2023-03-22T07:31:37.762Z,50.12
2023-03-22T07:36:44.526Z,50.13
2023-03-22T07:41:49.481Z,50.06
2023-03-22T07:46:52.410Z,49.82
2023-03-22T07:52:07.760Z,49.90
2023-03-22T07:57:09.833Z,49.86
2023-03-22T08:02:19.628Z,49.77
2023-03-22T08:07:27.800Z,49.67
2023-03-22T08:12:32.637Z,49.47
2023-03-22T08:17:49.128Z,49.17
2023-03-22T08:22:59.057Z,49.06
2023-03-22T08:28:35.826Z,48.93
2023-03-22T08:33:42.173Z,49.22
2023-03-22T08:38:46.407Z,49.17
2023-03-22T08:44:03.246Z,48.80
2023-03-22T08:49:05.758Z,48.29
2023-03-22T08:54:15.572Z,48.07
2023-03-22T08:59:46.286Z,47.77
2023-03-22T09:05:02.448Z,47.61
2023-03-22T09:10:05.457Z,46.74
2023-03-22T09:15:10.673Z,46.47
2023-03-22T09:20:15.677Z,46.40
2023-03-22T09:25:21.725Z,45.93
2023-03-22T09:30:24.513Z,45.55
2023-03-22T09:35:28.580Z,44.87
2023-03-22T09:40:39.318Z,44.46
2023-03-22T09:45:48.213Z,44.21
2023-03-22T09:50:55.237Z,44.24
2023-03-22T09:55:59.615Z,44.21
2023-03-22T10:01:40.579Z,43.16
2023-03-22T10:06:49.387Z,43.25
2023-03-22T10:12:22.567Z,43.47
2023-03-22T10:17:28.033Z,42.98
2023-03-22T10:22:36.451Z,43.18
2023-03-22T10:27:40.275Z,43.38
2023-03-22T10:33:16.566Z,42.44
2023-03-22T10:38:29.517Z,42.43
2023-03-22T10:43:42.785Z,42.69
2023-03-22T10:48:50.828Z,42.66
2023-03-22T10:53:55.018Z,42.25
2023-03-22T10:58:59.229Z,41.92
2023-03-22T11:04:08.933Z,41.80
2023-03-22T11:09:22.283Z,41.66
2023-03-22T11:14:32.289Z,41.72
2023-03-22T11:19:39.541Z,41.37
2023-03-22T11:24:41.425Z,39.67
2023-03-22T11:29:46.382Z,39.83
2023-03-22T11:34:59.760Z,39.75
2023-03-22T11:40:04.510Z,39.20
2023-03-22T11:45:12.937Z,39.76
2023-03-22T11:50:25.762Z,40.05
2023-03-22T11:55:31.703Z,39.05
2023-03-22T12:00:40.757Z,38.79
2023-03-22T12:05:44.760Z,38.67
2023-03-22T12:10:52.505Z,39.14
2023-03-22T12:16:01.141Z,38.76
2023-03-22T12:21:02.838Z,38.05
2023-03-22T12:26:07.741Z,38.22
2023-03-22T12:31:29.652Z,37.50
2023-03-22T12:36:48.243Z,37.27
2023-03-22T12:41:55.891Z,37.32
2023-03-22T12:47:01.501Z,36.23
2023-03-22T12:52:37.669Z,36.35
2023-03-22T12:57:51.351Z,36.65
2023-03-22T13:03:03.882Z,36.72
2023-03-22T13:08:06.374Z,37.02
2023-03-22T13:13:24.003Z,36.73
2023-03-22T13:18:39.446Z,35.64
2023-03-22T13:24:10.203Z,36.31
2023-03-22T13:29:33.940Z,36.31
2023-03-22T13:34:45.611Z,35.66
2023-03-22T13:39:51.947Z,35.31
2023-03-22T13:45:03.405Z,35.42
2023-03-22T13:50:37.512Z,34.34
2023-03-22T13:55:41.232Z,34.99
2023-03-22T14:00:49.361Z,34.65
2023-03-22T14:06:02.541Z,35.27
2023-03-22T14:11:36.143Z,35.10
2023-03-22T14:16:43.487Z,33.97
